Startpagina
METAR-TAF:

METAR-TAF

Vliegvelden :

Ilorin, Nigeria

breedte: 08-29N, lengte: 004-35E, hoogte: 308 m

Actueel weer

Dit bericht is 7 uur en het 45 minuten geleden gemaakt, om 19:00 UTC
Wind 7 kt uit het noorden
Temperatuur 28°C
Vochtigheid 20%
Druk 1012 hPa
Zicht: 6000 m

METAR: DNIL 281900Z 36007KT 6000 NSC 28/03 Q1012

Tijdstip: 03:45 (02:45 UTC)

Verwachting

Dit bericht is 3 uur en het 45 minuten geleden gemaakt, om 23:00 UTC
Verwachting geldig van 29 om 00 UTC tot 30 om 06 UTC
Wind 4 kt uit het noordnoordoosten
Zicht: 6000 m
Kans 30% :
Tijdelijke
van 29 om 06 UTC tot 29 om 10 UTC
Zicht: 5000 m
Heiigheid

TAF: DNIL 282300Z 2900/3006 02004KT 6000 NSC PROB30 TEMPO 2906/2910 5000 HZ

Waarnemingen en weersverwachtingen van meer dan 4000 vliegvelden (METAR en TAF).

De beschikbare stations zijn de gele en rode punten op de kaart.

Ga met uw muis naar het station om de naam te zien.

Klik dan om waarnemingen en weersverwachtingen te zien.

kaart wijzigen: klik op de groene knoppen met een zwart kruis om in te zoomen, op de groene knop met een streepje om uit te zoomen of op de groene pijlen voor aangrenzende kaarten.


METAR-TAF: